Hastings, Canada
Current Conditions -  °F | °C
As of 3:00 PM on Friday 19 Dec 2014 (Local Time) from CYPQ Reporting Station
Overcast Overcast  
Wind Chill: 15°   Ceiling: 7000
Heat Index: 25°   Visibility: 9mi
Dew Point: 18°   Wind: 9mph
Humidity: 74%   Direction: 300°WNW
Pressure: 30.16"   Gusts: NA
Location:  44.3°N, 77.95°W
Report Text: CYPQ 192000Z AUTO 30008KT 9SM OVC070 M04/M08 A3016 RMK SLP224
Loading
Personal Weather Stations






























Interactive Weather Map New forecast layout! Learn more

10-Day Weather Forecast

Advertisements
Track Severe Weather on mobile